sensor_id;sensor_type;location;lat;lon;timestamp;pressure;altitude;pressure_sealevel;temperature;humidity
37832;BME280;23671;38.090;-122.570;2023-05-23T00:01:41;100945.59;;;29.09;45.93
37832;BME280;23671;38.090;-122.570;2023-05-23T00:04:11;100940.84;;;29.05;45.97
37832;BME280;23671;38.090;-122.570;2023-05-23T00:06:45;100948.56;;;29.08;46.04
37832;BME280;23671;38.090;-122.570;2023-05-23T00:09:15;100938.47;;;29.08;46.09
37832;BME280;23671;38.090;-122.570;2023-05-23T00:11:43;100935.16;;;29.06;45.34
37832;BME280;23671;38.090;-122.570;2023-05-23T00:14:11;100934.56;;;29.04;45.37
37832;BME280;23671;38.090;-122.570;2023-05-23T00:16:42;100934.81;;;29.03;45.53
37832;BME280;23671;38.090;-122.570;2023-05-23T00:19:13;100935.16;;;29.06;45.70
37832;BME280;23671;38.090;-122.570;2023-05-23T00:21:41;100932.69;;;29.05;45.79
37832;BME280;23671;38.090;-122.570;2023-05-23T00:24:13;100940.50;;;29.01;45.04
37832;BME280;23671;38.090;-122.570;2023-05-23T00:26:45;100932.34;;;29.01;45.31
37832;BME280;23671;38.090;-122.570;2023-05-23T00:29:12;100932.09;;;29.03;45.31
37832;BME280;23671;38.090;-122.570;2023-05-23T00:31:43;100932.34;;;29.01;45.10
37832;BME280;23671;38.090;-122.570;2023-05-23T00:34:14;100934.47;;;28.99;45.38
37832;BME280;23671;38.090;-122.570;2023-05-23T00:36:44;100935.75;;;28.97;44.67
37832;BME280;23671;38.090;-122.570;2023-05-23T00:39:16;100934.13;;;28.96;44.91
37832;BME280;23671;38.090;-122.570;2023-05-23T00:41:49;100932.69;;;28.93;44.81
37832;BME280;23671;38.090;-122.570;2023-05-23T00:44:16;100932.69;;;28.93;45.28
37832;BME280;23671;38.090;-122.570;2023-05-23T00:46:48;100929.63;;;28.90;44.67
37832;BME280;23671;38.090;-122.570;2023-05-23T00:49:16;100927.59;;;28.85;44.32
37832;BME280;23671;38.090;-122.570;2023-05-23T00:51:47;100929.50;;;28.85;44.21
37832;BME280;23671;38.090;-122.570;2023-05-23T00:54:36;100931.03;;;28.81;44.41
37832;BME280;23671;38.090;-122.570;2023-05-23T00:57:03;100930.69;;;28.77;44.37
37832;BME280;23671;38.090;-122.570;2023-05-23T00:59:31;100923.81;;;28.75;44.43
37832;BME280;23671;38.090;-122.570;2023-05-23T01:02:00;100926.19;;;28.71;44.12
37832;BME280;23671;38.090;-122.570;2023-05-23T01:04:27;100914.94;;;28.67;43.93
37832;BME280;23671;38.090;-122.570;2023-05-23T01:06:55;100917.53;;;28.62;43.95
37832;BME280;23671;38.090;-122.570;2023-05-23T01:09:26;100913.38;;;28.60;43.88
37832;BME280;23671;38.090;-122.570;2023-05-23T01:12:27;100913.47;;;28.53;43.93
37832;BME280;23671;38.090;-122.570;2023-05-23T01:15:08;100916.88;;;28.49;43.51
37832;BME280;23671;38.090;-122.570;2023-05-23T01:20:21;100901.16;;;28.39;43.14
37832;BME280;23671;38.090;-122.570;2023-05-23T01:28:23;100897.47;;;28.22;42.98
37832;BME280;23671;38.090;-122.570;2023-05-23T01:30:53;100900.66;;;28.19;42.86
37832;BME280;23671;38.090;-122.570;2023-05-23T01:33:25;100896.94;;;28.14;42.82
37832;BME280;23671;38.090;-122.570;2023-05-23T01:35:56;100900.63;;;28.08;42.71
37832;BME280;23671;38.090;-122.570;2023-05-23T01:38:24;100907.56;;;28.04;42.61
37832;BME280;23671;38.090;-122.570;2023-05-23T01:41:03;100903.06;;;27.98;42.52
37832;BME280;23671;38.090;-122.570;2023-05-23T01:43:30;100902.25;;;27.91;42.12
37832;BME280;23671;38.090;-122.570;2023-05-23T01:45:57;100904.84;;;27.85;42.23
37832;BME280;23671;38.090;-122.570;2023-05-23T01:48:26;100907.66;;;27.79;41.47
37832;BME280;23671;38.090;-122.570;2023-05-23T01:50:54;100904.44;;;27.70;41.50
37832;BME280;23671;38.090;-122.570;2023-05-23T01:53:23;100906.19;;;27.65;41.82
37832;BME280;23671;38.090;-122.570;2023-05-23T01:55:51;100908.97;;;27.58;41.35
37832;BME280;23671;38.090;-122.570;2023-05-23T01:58:20;100909.03;;;27.52;41.10
37832;BME280;23671;38.090;-122.570;2023-05-23T02:00:47;100903.25;;;27.48;40.36
37832;BME280;23671;38.090;-122.570;2023-05-23T02:03:14;100900.81;;;27.40;40.87
37832;BME280;23671;38.090;-122.570;2023-05-23T02:05:44;100900.09;;;27.33;40.32
37832;BME280;23671;38.090;-122.570;2023-05-23T02:08:11;100897.19;;;27.28;40.33
37832;BME280;23671;38.090;-122.570;2023-05-23T02:10:38;100892.06;;;27.20;39.72
37832;BME280;23671;38.090;-122.570;2023-05-23T02:13:05;100898.16;;;27.16;39.63
37832;BME280;23671;38.090;-122.570;2023-05-23T02:15:32;100901.75;;;27.10;39.89
37832;BME280;23671;38.090;-122.570;2023-05-23T02:17:59;100904.31;;;27.05;39.45
37832;BME280;23671;38.090;-122.570;2023-05-23T02:20:28;100910.25;;;26.95;39.69
37832;BME280;23671;38.090;-122.570;2023-05-23T02:22:55;100913.88;;;26.89;39.36
37832;BME280;23671;38.090;-122.570;2023-05-23T02:25:22;100916.63;;;26.82;39.04
37832;BME280;23671;38.090;-122.570;2023-05-23T02:27:49;100926.47;;;26.77;39.30
37832;BME280;23671;38.090;-122.570;2023-05-23T02:30:16;100930.06;;;26.71;39.18
37832;BME280;23671;38.090;-122.570;2023-05-23T02:32:43;100931.13;;;26.63;39.17
37832;BME280;23671;38.090;-122.570;2023-05-23T02:35:11;100938.28;;;26.58;39.14
37832;BME280;23671;38.090;-122.570;2023-05-23T02:37:39;100942.06;;;26.50;39.35
37832;BME280;23671;38.090;-122.570;2023-05-23T02:40:07;100938.38;;;26.45;39.04
37832;BME280;23671;38.090;-122.570;2023-05-23T02:42:36;100935.94;;;26.37;39.53
37832;BME280;23671;38.090;-122.570;2023-05-23T02:45:03;100931.84;;;26.28;38.67
37832;BME280;23671;38.090;-122.570;2023-05-23T02:47:30;100930.22;;;26.20;39.21
37832;BME280;23671;38.090;-122.570;2023-05-23T02:49:57;100929.22;;;26.15;39.43
37832;BME280;23671;38.090;-122.570;2023-05-23T02:52:25;100926.53;;;26.08;39.05
37832;BME280;23671;38.090;-122.570;2023-05-23T02:54:52;100932.38;;;25.98;38.90
37832;BME280;23671;38.090;-122.570;2023-05-23T02:57:19;100937.00;;;25.91;38.83
37832;BME280;23671;38.090;-122.570;2023-05-23T02:59:47;100932.47;;;25.85;39.23
37832;BME280;23671;38.090;-122.570;2023-05-23T03:02:16;100932.09;;;25.75;39.32
37832;BME280;23671;38.090;-122.570;2023-05-23T03:04:43;100942.28;;;25.67;39.72
37832;BME280;23671;38.090;-122.570;2023-05-23T03:07:10;100933.38;;;25.60;39.32
37832;BME280;23671;38.090;-122.570;2023-05-23T03:09:39;100924.66;;;25.51;39.43
37832;BME280;23671;38.090;-122.570;2023-05-23T03:12:06;100925.56;;;25.45;39.78
37832;BME280;23671;38.090;-122.570;2023-05-23T03:14:33;100922.19;;;25.37;39.61
37832;BME280;23671;38.090;-122.570;2023-05-23T03:17:00;100920.78;;;25.28;39.45
37832;BME280;23671;38.090;-122.570;2023-05-23T03:19:29;100921.00;;;25.19;39.45
37832;BME280;23671;38.090;-122.570;2023-05-23T03:21:57;100918.28;;;25.13;39.98
37832;BME280;23671;38.090;-122.570;2023-05-23T03:24:24;100922.06;;;25.05;39.76
37832;BME280;23671;38.090;-122.570;2023-05-23T03:26:51;100919.38;;;24.99;40.02
37832;BME280;23671;38.090;-122.570;2023-05-23T03:29:18;100920.44;;;24.91;39.92
37832;BME280;23671;38.090;-122.570;2023-05-23T03:31:45;100919.81;;;24.83;40.25
37832;BME280;23671;38.090;-122.570;2023-05-23T03:34:12;100919.78;;;24.76;40.34
37832;BME280;23671;38.090;-122.570;2023-05-23T03:36:39;100918.09;;;24.69;40.00
37832;BME280;23671;38.090;-122.570;2023-05-23T03:39:06;100918.31;;;24.61;40.13
37832;BME280;23671;38.090;-122.570;2023-05-23T03:41:33;100924.56;;;24.55;40.26
37832;BME280;23671;38.090;-122.570;2023-05-23T03:44:01;100927.84;;;24.44;40.50
37832;BME280;23671;38.090;-122.570;2023-05-23T03:46:29;100924.31;;;24.37;40.60
37832;BME280;23671;38.090;-122.570;2023-05-23T03:48:56;100920.81;;;24.29;40.35
37832;BME280;23671;38.090;-122.570;2023-05-23T03:51:23;100920.56;;;24.18;40.69
37832;BME280;23671;38.090;-122.570;2023-05-23T03:53:52;100918.47;;;24.13;40.81
37832;BME280;23671;38.090;-122.570;2023-05-23T03:56:19;100924.91;;;24.06;40.69
37832;BME280;23671;38.090;-122.570;2023-05-23T03:58:46;100923.19;;;23.98;41.10
37832;BME280;23671;38.090;-122.570;2023-05-23T04:01:14;100931.25;;;23.92;41.28
37832;BME280;23671;38.090;-122.570;2023-05-23T04:03:41;100919.38;;;23.80;41.18
37832;BME280;23671;38.090;-122.570;2023-05-23T04:06:08;100917.69;;;23.72;41.28
37832;BME280;23671;38.090;-122.570;2023-05-23T04:08:35;100922.88;;;23.67;41.67
37832;BME280;23671;38.090;-122.570;2023-05-23T04:11:02;100920.13;;;23.61;41.22
37832;BME280;23671;38.090;-122.570;2023-05-23T04:13:30;100912.03;;;23.54;41.27
37832;BME280;23671;38.090;-122.570;2023-05-23T04:15:58;100924.19;;;23.43;41.39
37832;BME280;23671;38.090;-122.570;2023-05-23T04:18:27;100923.13;;;23.38;41.67
37832;BME280;23671;38.090;-122.570;2023-05-23T04:20:54;100926.41;;;23.33;41.28
37832;BME280;23671;38.090;-122.570;2023-05-23T04:23:21;100938.34;;;23.24;41.60
37832;BME280;23671;38.090;-122.570;2023-05-23T04:25:48;100940.81;;;23.19;41.34
37832;BME280;23671;38.090;-122.570;2023-05-23T04:28:16;100937.25;;;23.12;41.48
37832;BME280;23671;38.090;-122.570;2023-05-23T04:30:44;100933.69;;;23.05;41.28
37832;BME280;23671;38.090;-122.570;2023-05-23T04:33:11;100932.34;;;22.95;41.43
37832;BME280;23671;38.090;-122.570;2023-05-23T04:35:38;100940.19;;;22.90;41.61
37832;BME280;23671;38.090;-122.570;2023-05-23T04:38:06;100937.63;;;22.82;41.66
37832;BME280;23671;38.090;-122.570;2023-05-23T04:40:33;100945.03;;;22.73;41.60
37832;BME280;23671;38.090;-122.570;2023-05-23T04:43:00;100953.06;;;22.67;41.67
37832;BME280;23671;38.090;-122.570;2023-05-23T04:45:27;100954.84;;;22.60;41.81
37832;BME280;23671;38.090;-122.570;2023-05-23T04:47:54;100954.50;;;22.48;41.45
37832;BME280;23671;38.090;-122.570;2023-05-23T04:50:21;100951.75;;;22.41;41.82
37832;BME280;23671;38.090;-122.570;2023-05-23T04:52:49;100951.22;;;22.31;41.79
37832;BME280;23671;38.090;-122.570;2023-05-23T04:55:16;100956.16;;;22.28;41.54
37832;BME280;23671;38.090;-122.570;2023-05-23T04:57:43;100959.34;;;22.17;41.90
37832;BME280;23671;38.090;-122.570;2023-05-23T05:00:10;100967.34;;;22.10;41.87
37832;BME280;23671;38.090;-122.570;2023-05-23T05:02:39;100959.22;;;22.04;41.75
37832;BME280;23671;38.090;-122.570;2023-05-23T05:05:07;100961.81;;;21.97;41.74
37832;BME280;23671;38.090;-122.570;2023-05-23T05:07:35;100960.28;;;21.88;41.66
37832;BME280;23671;38.090;-122.570;2023-05-23T05:10:03;100961.66;;;21.84;41.46
37832;BME280;23671;38.090;-122.570;2023-05-23T05:12:30;100949.31;;;21.75;41.68
37832;BME280;23671;38.090;-122.570;2023-05-23T05:14:57;100961.81;;;21.68;41.68
37832;BME280;23671;38.090;-122.570;2023-05-23T05:17:24;100960.34;;;21.65;41.62
37832;BME280;23671;38.090;-122.570;2023-05-23T05:19:51;100967.69;;;21.57;41.79
37832;BME280;23671;38.090;-122.570;2023-05-23T05:22:18;100963.69;;;21.53;41.72
37832;BME280;23671;38.090;-122.570;2023-05-23T05:24:45;100961.09;;;21.45;41.70
37832;BME280;23671;38.090;-122.570;2023-05-23T05:27:12;100964.53;;;21.39;41.79
37832;BME280;23671;38.090;-122.570;2023-05-23T05:29:39;100959.06;;;21.32;41.88
37832;BME280;23671;38.090;-122.570;2023-05-23T05:32:06;100963.50;;;21.25;41.91
37832;BME280;23671;38.090;-122.570;2023-05-23T05:34:34;100969.59;;;21.19;41.91
37832;BME280;23671;38.090;-122.570;2023-05-23T05:37:03;100970.38;;;21.13;41.79
37832;BME280;23671;38.090;-122.570;2023-05-23T05:39:31;100966.53;;;21.08;42.13
37832;BME280;23671;38.090;-122.570;2023-05-23T05:41:58;100966.44;;;21.01;42.17
37832;BME280;23671;38.090;-122.570;2023-05-23T05:44:26;100968.63;;;20.98;42.00
37832;BME280;23671;38.090;-122.570;2023-05-23T05:46:53;100967.03;;;20.89;41.94
37832;BME280;23671;38.090;-122.570;2023-05-23T05:49:22;100971.47;;;20.81;42.22
37832;BME280;23671;38.090;-122.570;2023-05-23T05:51:49;100971.34;;;20.75;42.29
37832;BME280;23671;38.090;-122.570;2023-05-23T05:54:17;100976.25;;;20.71;42.33
37832;BME280;23671;38.090;-122.570;2023-05-23T05:56:45;100976.13;;;20.65;42.25
37832;BME280;23671;38.090;-122.570;2023-05-23T05:59:12;100978.50;;;20.60;42.39
37832;BME280;23671;38.090;-122.570;2023-05-23T06:01:39;100967.50;;;20.55;42.38
37832;BME280;23671;38.090;-122.570;2023-05-23T06:04:06;100966.38;;;20.49;42.35
37832;BME280;23671;38.090;-122.570;2023-05-23T06:06:33;100972.44;;;20.43;42.38
37832;BME280;23671;38.090;-122.570;2023-05-23T06:09:00;100971.66;;;20.35;42.48
37832;BME280;23671;38.090;-122.570;2023-05-23T06:11:27;100961.81;;;20.27;42.56
37832;BME280;23671;38.090;-122.570;2023-05-23T06:13:55;100978.63;;;20.21;42.66
37832;BME280;23671;38.090;-122.570;2023-05-23T06:16:24;100976.44;;;20.17;42.81
37832;BME280;23671;38.090;-122.570;2023-05-23T06:18:50;100973.44;;;20.12;42.62
37832;BME280;23671;38.090;-122.570;2023-05-23T06:21:17;100966.28;;;20.04;42.94
37832;BME280;23671;38.090;-122.570;2023-05-23T06:23:44;100966.00;;;19.99;42.96
37832;BME280;23671;38.090;-122.570;2023-05-23T06:26:11;100965.66;;;19.94;43.00
37832;BME280;23671;38.090;-122.570;2023-05-23T06:28:38;100963.72;;;19.88;43.09
37832;BME280;23671;38.090;-122.570;2023-05-23T06:31:06;100962.38;;;19.84;43.07
37832;BME280;23671;38.090;-122.570;2023-05-23T06:33:35;100961.22;;;19.78;43.10
37832;BME280;23671;38.090;-122.570;2023-05-23T06:36:03;100963.78;;;19.72;43.09
37832;BME280;23671;38.090;-122.570;2023-05-23T06:38:31;100958.09;;;19.67;43.20
37832;BME280;23671;38.090;-122.570;2023-05-23T06:41:01;100959.63;;;19.61;43.22
37832;BME280;23671;38.090;-122.570;2023-05-23T06:43:29;100955.47;;;19.59;43.22
37832;BME280;23671;38.090;-122.570;2023-05-23T06:45:56;100959.81;;;19.52;43.33
37832;BME280;23671;38.090;-122.570;2023-05-23T06:48:23;100956.19;;;19.45;43.34
37832;BME280;23671;38.090;-122.570;2023-05-23T06:50:51;100955.03;;;19.39;43.32
37832;BME280;23671;38.090;-122.570;2023-05-23T06:53:18;100952.84;;;19.35;43.40
37832;BME280;23671;38.090;-122.570;2023-05-23T06:55:45;100958.53;;;19.32;43.60
37832;BME280;23671;38.090;-122.570;2023-05-23T06:58:12;100957.53;;;19.25;43.71
37832;BME280;23671;38.090;-122.570;2023-05-23T07:00:40;100958.25;;;19.19;43.62
37832;BME280;23671;38.090;-122.570;2023-05-23T07:03:07;100963.06;;;19.15;43.62
37832;BME280;23671;38.090;-122.570;2023-05-23T07:05:34;100961.91;;;19.10;43.74
37832;BME280;23671;38.090;-122.570;2023-05-23T07:08:02;100960.44;;;19.07;43.70
37832;BME280;23671;38.090;-122.570;2023-05-23T07:10:29;100961.13;;;19.01;43.82
37832;BME280;23671;38.090;-122.570;2023-05-23T07:12:56;100961.63;;;18.96;43.86
37832;BME280;23671;38.090;-122.570;2023-05-23T07:15:23;100951.41;;;18.92;43.97
37832;BME280;23671;38.090;-122.570;2023-05-23T07:17:50;100948.41;;;18.87;43.84
37832;BME280;23671;38.090;-122.570;2023-05-23T07:20:17;100952.78;;;18.80;44.01
37832;BME280;23671;38.090;-122.570;2023-05-23T07:22:44;100949.44;;;18.78;43.94
37832;BME280;23671;38.090;-122.570;2023-05-23T07:25:13;100952.78;;;18.72;44.17
37832;BME280;23671;38.090;-122.570;2023-05-23T07:27:40;100957.47;;;18.70;44.21
37832;BME280;23671;38.090;-122.570;2023-05-23T07:30:07;100950.94;;;18.64;44.09
37832;BME280;23671;38.090;-122.570;2023-05-23T07:32:35;100948.59;;;18.61;44.09
37832;BME280;23671;38.090;-122.570;2023-05-23T07:35:02;100952.09;;;18.54;44.26
37832;BME280;23671;38.090;-122.570;2023-05-23T07:37:30;100955.78;;;18.53;44.37
37832;BME280;23671;38.090;-122.570;2023-05-23T07:39:57;100946.59;;;18.47;44.18
37832;BME280;23671;38.090;-122.570;2023-05-23T07:42:24;100951.78;;;18.49;44.43
37832;BME280;23671;38.090;-122.570;2023-05-23T07:44:51;100950.88;;;18.40;44.48
37832;BME280;23671;38.090;-122.570;2023-05-23T07:47:18;100953.22;;;18.35;44.24
37832;BME280;23671;38.090;-122.570;2023-05-23T07:49:45;100954.22;;;18.34;44.20
37832;BME280;23671;38.090;-122.570;2023-05-23T07:52:13;100956.75;;;18.28;44.47
37832;BME280;23671;38.090;-122.570;2023-05-23T07:54:40;100957.03;;;18.25;44.55
37832;BME280;23671;38.090;-122.570;2023-05-23T07:57:07;100959.38;;;18.20;44.63
37832;BME280;23671;38.090;-122.570;2023-05-23T07:59:34;100950.19;;;18.14;44.68
37832;BME280;23671;38.090;-122.570;2023-05-23T08:02:02;100950.50;;;18.11;44.50
37832;BME280;23671;38.090;-122.570;2023-05-23T08:04:29;100955.19;;;18.09;44.71
37832;BME280;23671;38.090;-122.570;2023-05-23T08:06:57;100955.19;;;18.01;44.62
37832;BME280;23671;38.090;-122.570;2023-05-23T08:09:25;100957.19;;;17.99;44.72
37832;BME280;23671;38.090;-122.570;2023-05-23T08:11:52;100957.66;;;17.94;44.77
37832;BME280;23671;38.090;-122.570;2023-05-23T08:14:19;100955.47;;;17.90;44.53
37832;BME280;23671;38.090;-122.570;2023-05-23T08:16:48;100958.47;;;17.87;44.56
37832;BME280;23671;38.090;-122.570;2023-05-23T08:19:15;100953.81;;;17.89;44.78
37832;BME280;23671;38.090;-122.570;2023-05-23T08:21:42;100954.28;;;17.84;44.41
37832;BME280;23671;38.090;-122.570;2023-05-23T08:24:09;100951.28;;;17.79;44.53
37832;BME280;23671;38.090;-122.570;2023-05-23T08:26:36;100953.44;;;17.76;44.60
37832;BME280;23671;38.090;-122.570;2023-05-23T08:29:03;100951.25;;;17.71;44.67
37832;BME280;23671;38.090;-122.570;2023-05-23T08:31:31;100953.41;;;17.68;44.90
37832;BME280;23671;38.090;-122.570;2023-05-23T08:33:58;100945.56;;;17.66;44.97
37832;BME280;23671;38.090;-122.570;2023-05-23T08:36:25;100948.69;;;17.62;44.76
37832;BME280;23671;38.090;-122.570;2023-05-23T08:38:53;100949.34;;;17.56;44.94
37832;BME280;23671;38.090;-122.570;2023-05-23T08:41:21;100947.81;;;17.53;44.69
37832;BME280;23671;38.090;-122.570;2023-05-23T08:43:48;100954.47;;;17.49;45.00
37832;BME280;23671;38.090;-122.570;2023-05-23T08:46:16;100950.56;;;17.44;45.10
37832;BME280;23671;38.090;-122.570;2023-05-23T08:48:51;100943.88;;;17.40;45.16
37832;BME280;23671;38.090;-122.570;2023-05-23T08:51:24;100936.22;;;17.37;45.00
37832;BME280;23671;38.090;-122.570;2023-05-23T08:53:52;100934.00;;;17.32;44.94
37832;BME280;23671;38.090;-122.570;2023-05-23T08:56:19;100929.16;;;17.27;44.98
37832;BME280;23671;38.090;-122.570;2023-05-23T08:58:47;100934.97;;;17.23;45.08
37832;BME280;23671;38.090;-122.570;2023-05-23T09:01:14;100939.47;;;17.22;45.04
37832;BME280;23671;38.090;-122.570;2023-05-23T09:03:43;100948.78;;;17.18;45.07
37832;BME280;23671;38.090;-122.570;2023-05-23T09:06:10;100943.09;;;17.13;45.38
37832;BME280;23671;38.090;-122.570;2023-05-23T09:08:38;100935.53;;;17.09;45.39
37832;BME280;23671;38.090;-122.570;2023-05-23T09:11:05;100934.19;;;17.05;45.49
37832;BME280;23671;38.090;-122.570;2023-05-23T09:13:34;100929.00;;;17.03;45.63
37832;BME280;23671;38.090;-122.570;2023-05-23T09:16:02;100928.78;;;16.97;45.20
37832;BME280;23671;38.090;-122.570;2023-05-23T09:18:38;100923.94;;;16.92;45.29
37832;BME280;23671;38.090;-122.570;2023-05-23T09:21:06;100932.94;;;16.91;45.33
37832;BME280;23671;38.090;-122.570;2023-05-23T09:23:35;100928.75;;;16.89;45.39
37832;BME280;23671;38.090;-122.570;2023-05-23T09:26:07;100925.88;;;16.82;45.76
37832;BME280;23671;38.090;-122.570;2023-05-23T09:28:36;100934.03;;;16.81;45.82
37832;BME280;23671;38.090;-122.570;2023-05-23T09:31:05;100938.97;;;16.76;45.63
37832;BME280;23671;38.090;-122.570;2023-05-23T09:33:42;100940.97;;;16.74;45.82
37832;BME280;23671;38.090;-122.570;2023-05-23T09:36:09;100936.63;;;16.73;45.40
37832;BME280;23671;38.090;-122.570;2023-05-23T09:38:40;100944.41;;;16.66;45.87
37832;BME280;23671;38.090;-122.570;2023-05-23T09:41:08;100939.56;;;16.62;45.94
37832;BME280;23671;38.090;-122.570;2023-05-23T09:43:52;100931.84;;;16.59;45.64
37832;BME280;23671;38.090;-122.570;2023-05-23T09:46:21;100941.16;;;16.55;46.02
37832;BME280;23671;38.090;-122.570;2023-05-23T09:48:49;100938.66;;;16.53;46.04
37832;BME280;23671;38.090;-122.570;2023-05-23T09:51:18;100938.28;;;16.48;45.94
37832;BME280;23671;38.090;-122.570;2023-05-23T09:53:46;100936.88;;;16.44;46.03
37832;BME280;23671;38.090;-122.570;2023-05-23T09:56:15;100941.53;;;16.42;45.91
37832;BME280;23671;38.090;-122.570;2023-05-23T09:58:50;100931.16;;;16.39;45.89
37832;BME280;23671;38.090;-122.570;2023-05-23T10:01:21;100935.97;;;16.35;46.26
37832;BME280;23671;38.090;-122.570;2023-05-23T10:03:49;100924.78;;;16.32;46.23
37832;BME280;23671;38.090;-122.570;2023-05-23T10:06:41;100918.91;;;16.28;46.22
37832;BME280;23671;38.090;-122.570;2023-05-23T10:09:15;100928.19;;;16.24;46.16
37832;BME280;23671;38.090;-122.570;2023-05-23T10:14:19;100931.47;;;16.18;46.31
37832;BME280;23671;38.090;-122.570;2023-05-23T10:17:02;100936.28;;;16.15;46.20
37832;BME280;23671;38.090;-122.570;2023-05-23T10:22:11;100946.56;;;16.10;46.42
37832;BME280;23671;38.090;-122.570;2023-05-23T10:24:38;100953.28;;;16.04;46.37
37832;BME280;23671;38.090;-122.570;2023-05-23T10:27:06;100956.13;;;16.03;46.29
37832;BME280;23671;38.090;-122.570;2023-05-23T10:29:36;100959.09;;;16.00;46.38
37832;BME280;23671;38.090;-122.570;2023-05-23T10:32:04;100968.22;;;15.97;46.36
37832;BME280;23671;38.090;-122.570;2023-05-23T10:44:05;100934.94;;;15.84;46.72
37832;BME280;23671;38.090;-122.570;2023-05-23T10:46:12;100930.09;;;15.79;46.61
37832;BME280;23671;38.090;-122.570;2023-05-23T10:48:43;100935.53;;;15.78;46.67
37832;BME280;23671;38.090;-122.570;2023-05-23T10:51:14;100927.16;;;15.73;46.81
37832;BME280;23671;38.090;-122.570;2023-05-23T10:53:46;100936.97;;;15.72;46.82
37832;BME280;23671;38.090;-122.570;2023-05-23T10:56:22;100938.25;;;15.68;47.11
37832;BME280;23671;38.090;-122.570;2023-05-23T10:58:56;100937.56;;;15.66;46.92
37832;BME280;23671;38.090;-122.570;2023-05-23T11:01:24;100932.38;;;15.65;46.82
37832;BME280;23671;38.090;-122.570;2023-05-23T11:03:53;100934.34;;;15.63;47.02
37832;BME280;23671;38.090;-122.570;2023-05-23T11:06:39;100936.34;;;15.61;47.11
37832;BME280;23671;38.090;-122.570;2023-05-23T11:09:13;100932.13;;;15.58;47.12
37832;BME280;23671;38.090;-122.570;2023-05-23T11:11:54;100936.91;;;15.55;47.09
37832;BME280;23671;38.090;-122.570;2023-05-23T11:17:16;100940.16;;;15.48;47.06
37832;BME280;23671;38.090;-122.570;2023-05-23T11:19:57;100924.50;;;15.45;47.39
37832;BME280;23671;38.090;-122.570;2023-05-23T11:22:28;100932.81;;;15.42;47.46
37832;BME280;23671;38.090;-122.570;2023-05-23T11:24:57;100936.28;;;15.43;47.30
37832;BME280;23671;38.090;-122.570;2023-05-23T11:27:38;100926.06;;;15.38;47.25
37832;BME280;23671;38.090;-122.570;2023-05-23T11:30:10;100920.84;;;15.37;47.34
37832;BME280;23671;38.090;-122.570;2023-05-23T11:32:41;100920.31;;;15.33;47.36
37832;BME280;23671;38.090;-122.570;2023-05-23T11:35:10;100912.66;;;15.30;47.22
37832;BME280;23671;38.090;-122.570;2023-05-23T11:37:40;100912.66;;;15.30;47.44
37832;BME280;23671;38.090;-122.570;2023-05-23T11:40:29;100917.53;;;15.25;47.46
37832;BME280;23671;38.090;-122.570;2023-05-23T11:43:02;100916.84;;;15.23;47.45
37832;BME280;23671;38.090;-122.570;2023-05-23T11:45:30;100923.19;;;15.22;47.37
37832;BME280;23671;38.090;-122.570;2023-05-23T11:48:01;100917.31;;;15.19;47.51
37832;BME280;23671;38.090;-122.570;2023-05-23T11:50:31;100915.78;;;15.16;47.61
37832;BME280;23671;38.090;-122.570;2023-05-23T11:52:59;100923.75;;;15.16;47.61
37832;BME280;23671;38.090;-122.570;2023-05-23T11:55:26;100923.22;;;15.13;47.66
37832;BME280;23671;38.090;-122.570;2023-05-23T11:57:56;100919.84;;;15.11;47.58
37832;BME280;23671;38.090;-122.570;2023-05-23T12:00:22;100922.94;;;15.06;47.75
37832;BME280;23671;38.090;-122.570;2023-05-23T12:02:50;100925.06;;;15.03;47.62
37832;BME280;23671;38.090;-122.570;2023-05-23T12:05:17;100912.59;;;15.03;47.55
37832;BME280;23671;38.090;-122.570;2023-05-23T12:07:48;100919.75;;;15.03;47.63
37832;BME280;23671;38.090;-122.570;2023-05-23T12:10:18;100917.66;;;14.97;47.75
37832;BME280;23671;38.090;-122.570;2023-05-23T12:12:49;100922.16;;;14.96;47.73
37832;BME280;23671;38.090;-122.570;2023-05-23T12:15:17;100922.44;;;14.93;47.72
37832;BME280;23671;38.090;-122.570;2023-05-23T12:17:44;100929.72;;;14.91;47.90
37832;BME280;23671;38.090;-122.570;2023-05-23T12:20:12;100917.53;;;14.89;47.79
37832;BME280;23671;38.090;-122.570;2023-05-23T12:22:40;100917.69;;;14.87;47.93
37832;BME280;23671;38.090;-122.570;2023-05-23T12:25:10;100909.00;;;14.85;47.97
37832;BME280;23671;38.090;-122.570;2023-05-23T12:27:40;100917.13;;;14.84;47.75
37832;BME280;23671;38.090;-122.570;2023-05-23T12:30:12;100916.44;;;14.82;47.72
37832;BME280;23671;38.090;-122.570;2023-05-23T12:32:43;100917.56;;;14.79;48.11
37832;BME280;23671;38.090;-122.570;2023-05-23T12:35:13;100917.72;;;14.78;48.00
37832;BME280;23671;38.090;-122.570;2023-05-23T12:37:45;100929.59;;;14.74;48.02
37832;BME280;23671;38.090;-122.570;2023-05-23T12:40:14;100925.97;;;14.75;48.06
37832;BME280;23671;38.090;-122.570;2023-05-23T12:45:23;100931.00;;;14.68;48.18
37832;BME280;23671;38.090;-122.570;2023-05-23T12:47:50;100934.53;;;14.69;48.40
37832;BME280;23671;38.090;-122.570;2023-05-23T12:50:17;100948.66;;;14.69;48.19
37832;BME280;23671;38.090;-122.570;2023-05-23T12:52:44;100948.78;;;14.68;48.32
37832;BME280;23671;38.090;-122.570;2023-05-23T12:55:13;100956.19;;;14.64;48.31
37832;BME280;23671;38.090;-122.570;2023-05-23T12:57:40;100950.88;;;14.64;48.19